Terminal Aerodrome Forecast
Issued by NWS Upton, NY

Home | Current Version | Previous Version | Text Only | Print | Product List | Glossary On
Versions: 1 2 3 4 5 6 7 8 9 10 11 12 13 14 15 16 17 18 19 20 21 22 23 24
737
FTUS41 KOKX 240611 RRA
TAFBDR
TAF
KBDR 240611Z 2406/2506 13003KT P6SM BKN250
     FM241500 09005KT P6SM BKN150
     FM241800 13008KT P6SM BKN100
     FM242200 11009KT P6SM SCT050 BKN080
     FM250300 07009KT P6SM BKN080=

USA.gov is the U.S. government's official web portal to all federal, state and local government web resources and services.